Time;durP1;ratioP1;P1;durP2;ratioP2;P2;SDS_P1;SDS_P2;PMS_P1;PMS_P2;Temp;Humidity;BMP_temperature;BMP_pressure;BME280_temperature;BME280_humidity;BME280_pressure;Samples;Min_cycle;Max_cycle;Signal;HPM_P1;HPM_P2
2023/09/11 00:00:41;;;;;;;;;;;17.80;99.90;;;;;;4973603;28;20029;-62
2023/09/11 00:03:08;;;;;;;;;;;17.80;99.90;;;;;;4973577;28;19980;-62
2023/09/11 00:05:35;;;;;;;;;;;17.80;99.90;;;;;;4965750;28;19921;-62
2023/09/11 00:08:02;;;;;;;;;;;17.80;99.90;;;;;;4970806;28;19922;-62
2023/09/11 00:10:32;;;;;;;;;;;17.80;99.90;;;;;;4947852;28;19922;-62
2023/09/11 00:12:59;;;;;;;;;;;17.80;99.90;;;;;;4973792;28;19929;-62
2023/09/11 00:15:26;;;;;;;;;;;17.80;99.90;;;;;;4973311;28;19922;-60
2023/09/11 00:17:52;;;;;;;;;;;17.80;99.90;;;;;;4968385;28;19929;-61
2023/09/11 00:20:19;;;;;;;;;;;17.80;99.90;;;;;;4970737;28;20351;-61
2023/09/11 00:22:46;;;;;;;;;;;17.70;99.90;;;;;;4968155;28;19981;-61
2023/09/11 00:25:12;;;;;;;;;;;17.70;99.90;;;;;;4963263;28;19922;-62
2023/09/11 00:27:39;;;;;;;;;;;17.70;99.90;;;;;;4957959;28;20294;-62
2023/09/11 00:30:06;;;;;;;;;;;17.50;99.90;;;;;;4955352;28;20290;-62
2023/09/11 00:32:33;;;;;;;;;;;17.60;99.90;;;;;;4972661;28;19929;-62
2023/09/11 00:35:00;;;;;;;;;;;17.60;99.90;;;;;;4973098;28;19972;-62
2023/09/11 00:37:26;;;;;;;;;;;17.60;99.90;;;;;;4970147;28;19922;-60
2023/09/11 00:39:53;;;;;;;;;;;17.60;99.90;;;;;;4972211;28;20291;-61
2023/09/11 00:42:20;;;;;;;;;;;17.50;99.90;;;;;;4973391;28;19922;-60
2023/09/11 00:44:47;;;;;;;;;;;17.50;99.90;;;;;;4968417;28;19989;-60
2023/09/11 00:47:13;;;;;;;;;;;17.50;99.90;;;;;;4945103;28;19926;-60
2023/09/11 00:49:41;;;;;;;;;;;17.50;99.90;;;;;;4971940;28;19976;-60
2023/09/11 00:52:08;;;;;;;;;;;17.50;99.90;;;;;;4972225;28;20211;-60
2023/09/11 00:54:34;;;;;;;;;;;17.40;99.90;;;;;;4972936;28;19933;-61
2023/09/11 00:57:01;;;;;;;;;;;17.40;99.90;;;;;;4942037;29;19922;-61
2023/09/11 00:59:28;;;;;;;;;;;17.40;99.90;;;;;;4969596;28;19925;-61
2023/09/11 01:01:55;;;;;;;;;;;17.40;99.90;;;;;;4947909;28;19922;-60
2023/09/11 01:04:22;;;;;;;;;;;17.40;99.90;;;;;;4973042;28;19922;-59
2023/09/11 01:06:48;;;;;;;;;;;17.50;99.90;;;;;;4968672;28;19927;-61
2023/09/11 01:09:15;;;;;;;;;;;17.50;99.90;;;;;;4939661;28;19926;-59
2023/09/11 01:11:42;;;;;;;;;;;17.50;99.90;;;;;;4964998;28;20404;-60
2023/09/11 01:14:09;;;;;;;;;;;17.50;99.90;;;;;;4972680;28;19977;-61
2023/09/11 01:16:55;;;;;;;;;;;17.50;99.90;;;;;;4966589;28;20323;-61
2023/09/11 01:19:21;;;;;;;;;;;17.40;99.90;;;;;;4968400;28;19945;-60
2023/09/11 01:21:48;;;;;;;;;;;17.30;99.90;;;;;;4972170;28;19973;-62
2023/09/11 01:24:24;;;;;;;;;;;17.20;99.90;;;;;;4955737;28;19928;-60
2023/09/11 01:27:03;;;;;;;;;;;17.20;99.90;;;;;;4960983;28;20098;-61
2023/09/11 01:29:33;;;;;;;;;;;17.20;99.90;;;;;;4954372;28;19929;-61
2023/09/11 01:32:05;;;;;;;;;;;17.20;99.90;;;;;;4972019;28;19922;-62
2023/09/11 01:34:32;;;;;;;;;;;17.20;99.90;;;;;;4955547;28;19922;-61
2023/09/11 01:36:58;;;;;;;;;;;17.30;99.90;;;;;;4954768;28;19932;-61
2023/09/11 01:39:25;;;;;;;;;;;17.30;99.90;;;;;;4966026;28;20005;-61
2023/09/11 01:41:54;;;;;;;;;;;17.20;99.90;;;;;;4973062;28;20383;-60
2023/09/11 01:44:23;;;;;;;;;;;17.30;99.90;;;;;;4972792;28;19922;-61
2023/09/11 01:46:50;;;;;;;;;;;17.20;99.90;;;;;;4963732;28;19922;-62
2023/09/11 01:49:19;;;;;;;;;;;17.10;99.90;;;;;;4946717;29;19922;-62
2023/09/11 01:51:46;;;;;;;;;;;17.10;99.90;;;;;;4970974;28;20398;-62
2023/09/11 01:54:13;;;;;;;;;;;17.10;99.90;;;;;;4948571;29;20009;-62
2023/09/11 01:56:40;;;;;;;;;;;17.00;99.90;;;;;;4954340;28;19965;-62
2023/09/11 01:59:07;;;;;;;;;;;16.90;99.90;;;;;;4971717;28;19939;-62
2023/09/11 02:01:34;;;;;;;;;;;16.90;99.90;;;;;;4958042;28;20279;-62
2023/09/11 02:04:01;;;;;;;;;;;16.80;99.90;;;;;;4958857;28;19925;-62
2023/09/11 02:06:28;;;;;;;;;;;16.70;99.90;;;;;;4975187;28;20013;-62
2023/09/11 02:08:56;;;;;;;;;;;16.70;99.90;;;;;;4950203;29;19928;-62
2023/09/11 02:11:23;;;;;;;;;;;16.70;99.90;;;;;;4954052;28;19961;-61
2023/09/11 02:13:50;;;;;;;;;;;16.60;99.90;;;;;;4950555;28;19945;-62
2023/09/11 02:16:17;;;;;;;;;;;16.60;99.90;;;;;;4943814;29;19922;-62
2023/09/11 02:18:44;;;;;;;;;;;16.70;99.90;;;;;;4973635;28;20390;-62
2023/09/11 02:21:11;;;;;;;;;;;16.70;99.90;;;;;;4978818;28;19976;-62
2023/09/11 02:23:37;;;;;;;;;;;16.70;99.90;;;;;;4958286;28;19922;-62
2023/09/11 02:26:04;;;;;;;;;;;16.80;99.90;;;;;;4977952;28;19923;-62
2023/09/11 02:28:31;;;;;;;;;;;16.70;99.90;;;;;;4967361;28;19929;-62
2023/09/11 02:30:58;;;;;;;;;;;16.70;99.90;;;;;;4953693;29;20005;-62
2023/09/11 02:33:25;;;;;;;;;;;16.70;99.90;;;;;;4959902;28;19945;-62
2023/09/11 02:35:52;;;;;;;;;;;16.80;99.90;;;;;;4947139;28;19923;-62
2023/09/11 02:38:19;;;;;;;;;;;16.70;99.90;;;;;;4969911;28;19922;-61
2023/09/11 02:40:46;;;;;;;;;;;16.80;99.90;;;;;;4957094;28;19923;-61
2023/09/11 02:43:28;;;;;;;;;;;16.70;99.90;;;;;;4971489;28;19953;-62
2023/09/11 02:45:55;;;;;;;;;;;16.70;99.90;;;;;;4975583;28;19922;-62
2023/09/11 02:48:22;;;;;;;;;;;16.70;99.90;;;;;;4975241;28;19922;-62
2023/09/11 02:50:49;;;;;;;;;;;16.80;99.90;;;;;;4974635;28;19922;-62
2023/09/11 02:53:16;;;;;;;;;;;16.70;99.90;;;;;;4968731;28;19922;-61
2023/09/11 02:55:44;;;;;;;;;;;16.60;99.90;;;;;;4975277;28;19928;-62
2023/09/11 02:58:11;;;;;;;;;;;16.70;99.90;;;;;;4952209;29;19929;-62
2023/09/11 03:00:38;;;;;;;;;;;16.70;99.90;;;;;;4972795;28;19929;-62
2023/09/11 03:03:05;;;;;;;;;;;16.70;99.90;;;;;;4963031;28;20376;-62
2023/09/11 03:05:32;;;;;;;;;;;16.70;99.90;;;;;;4954993;28;19989;-62
2023/09/11 03:08:00;;;;;;;;;;;16.70;99.90;;;;;;4953139;28;19929;-62
2023/09/11 03:10:27;;;;;;;;;;;16.70;99.90;;;;;;4961829;28;19922;-62
2023/09/11 03:12:56;;;;;;;;;;;16.70;99.90;;;;;;4972500;28;20105;-62
2023/09/11 03:15:27;;;;;;;;;;;16.70;99.90;;;;;;4950032;29;19922;-61
2023/09/11 03:17:54;;;;;;;;;;;16.70;99.90;;;;;;4972060;28;20012;-62
2023/09/11 03:20:21;;;;;;;;;;;16.70;99.90;;;;;;4969659;28;19930;-61
2023/09/11 03:22:48;;;;;;;;;;;16.70;99.90;;;;;;4955947;28;19933;-60
2023/09/11 03:25:15;;;;;;;;;;;16.80;99.90;;;;;;4948962;28;20390;-61
2023/09/11 03:27:43;;;;;;;;;;;16.80;99.90;;;;;;4966297;28;20347;-62
2023/09/11 03:30:10;;;;;;;;;;;16.80;99.90;;;;;;4972924;28;19926;-62
2023/09/11 03:32:38;;;;;;;;;;;16.70;99.90;;;;;;4952785;28;20009;-62
2023/09/11 03:35:06;;;;;;;;;;;16.70;99.90;;;;;;4970104;28;19938;-62
2023/09/11 03:37:33;;;;;;;;;;;16.70;99.90;;;;;;4953450;28;19928;-62
2023/09/11 03:40:05;;;;;;;;;;;16.70;99.90;;;;;;4969707;28;19923;-61
2023/09/11 03:42:32;;;;;;;;;;;16.60;99.90;;;;;;4958575;28;20269;-62
2023/09/11 03:44:59;;;;;;;;;;;16.50;99.90;;;;;;4949107;28;19928;-62
2023/09/11 03:47:25;;;;;;;;;;;16.40;99.90;;;;;;4950268;29;19922;-62
2023/09/11 03:49:52;;;;;;;;;;;16.40;99.90;;;;;;4972255;28;20389;-62
2023/09/11 03:52:19;;;;;;;;;;;16.40;99.90;;;;;;4966809;28;19922;-62
2023/09/11 03:54:46;;;;;;;;;;;16.40;99.90;;;;;;4953807;28;20298;-62
2023/09/11 03:57:13;;;;;;;;;;;16.30;99.90;;;;;;4969822;28;19927;-62
2023/09/11 03:59:39;;;;;;;;;;;16.30;99.90;;;;;;4952903;28;19922;-62
2023/09/11 04:02:06;;;;;;;;;;;16.30;99.90;;;;;;4956780;28;19922;-61
2023/09/11 04:04:33;;;;;;;;;;;16.30;99.90;;;;;;4963564;28;20016;-62
2023/09/11 04:07:00;;;;;;;;;;;16.40;99.90;;;;;;4945384;29;20014;-62
2023/09/11 04:09:29;;;;;;;;;;;16.40;99.90;;;;;;4964456;28;19923;-62
2023/09/11 04:11:56;;;;;;;;;;;16.40;99.90;;;;;;4973420;28;19937;-62
2023/09/11 04:14:22;;;;;;;;;;;16.30;99.90;;;;;;4941869;28;19926;-61
2023/09/11 04:16:49;;;;;;;;;;;16.20;99.90;;;;;;4970831;28;19954;-62
2023/09/11 04:19:16;;;;;;;;;;;16.20;99.90;;;;;;4963764;28;19922;-61
2023/09/11 04:21:43;;;;;;;;;;;16.10;99.90;;;;;;4969823;28;20009;-61
2023/09/11 04:24:12;;;;;;;;;;;16.10;99.90;;;;;;4968161;28;19922;-62
2023/09/11 04:26:40;;;;;;;;;;;16.10;99.90;;;;;;4945756;28;20343;-62
2023/09/11 04:29:10;;;;;;;;;;;16.10;99.90;;;;;;4968842;28;19922;-62
2023/09/11 04:31:38;;;;;;;;;;;16.10;99.90;;;;;;4937000;28;20380;-62
2023/09/11 04:34:05;;;;;;;;;;;16.10;99.90;;;;;;4972240;28;20409;-62
2023/09/11 04:36:32;;;;;;;;;;;16.10;99.90;;;;;;4964811;28;19923;-61
2023/09/11 04:38:59;;;;;;;;;;;16.00;99.90;;;;;;4967266;28;19923;-62
2023/09/11 04:41:25;;;;;;;;;;;16.00;99.90;;;;;;4963471;28;20004;-61
2023/09/11 04:43:52;;;;;;;;;;;16.00;99.90;;;;;;4953422;28;20020;-62
2023/09/11 04:46:19;;;;;;;;;;;16.00;99.90;;;;;;4963198;28;19922;-62
2023/09/11 04:48:46;;;;;;;;;;;16.00;99.90;;;;;;4969950;28;19930;-58
2023/09/11 04:51:13;;;;;;;;;;;16.00;99.90;;;;;;4973177;28;20539;-61
2023/09/11 04:53:40;;;;;;;;;;;16.00;99.90;;;;;;4955058;28;20013;-61
2023/09/11 04:56:07;;;;;;;;;;;16.10;99.90;;;;;;4943688;29;20327;-61
2023/09/11 04:58:34;;;;;;;;;;;16.10;99.90;;;;;;4963018;28;19978;-60
2023/09/11 05:01:02;;;;;;;;;;;16.10;99.90;;;;;;4951002;28;19934;-62
2023/09/11 05:03:29;;;;;;;;;;;16.10;99.90;;;;;;4967943;28;20001;-60
2023/09/11 05:05:56;;;;;;;;;;;16.10;99.90;;;;;;4945799;28;19992;-58
2023/09/11 05:08:23;;;;;;;;;;;16.10;99.90;;;;;;4967770;28;19922;-59
2023/09/11 05:10:50;;;;;;;;;;;16.10;99.90;;;;;;4966476;28;19923;-61
2023/09/11 05:13:18;;;;;;;;;;;16.10;99.90;;;;;;4968236;28;20364;-61
2023/09/11 05:15:48;;;;;;;;;;;16.20;99.90;;;;;;4948376;28;19926;-61
2023/09/11 05:18:15;;;;;;;;;;;16.20;99.90;;;;;;4964758;28;19993;-61
2023/09/11 05:20:41;;;;;;;;;;;16.20;99.90;;;;;;4967542;28;20397;-61
2023/09/11 05:23:08;;;;;;;;;;;16.30;99.90;;;;;;4954610;28;20375;-60
2023/09/11 05:25:36;;;;;;;;;;;16.30;99.90;;;;;;4971881;28;19922;-61
2023/09/11 05:28:03;;;;;;;;;;;16.30;99.90;;;;;;4971724;28;20020;-62
2023/09/11 05:30:30;;;;;;;;;;;16.30;99.90;;;;;;4971706;28;19929;-62
2023/09/11 05:32:56;;;;;;;;;;;16.30;99.90;;;;;;4970152;28;19926;-62
2023/09/11 05:35:23;;;;;;;;;;;16.30;99.90;;;;;;4969628;28;20005;-61
2023/09/11 05:37:50;;;;;;;;;;;16.40;99.90;;;;;;4976707;28;19981;-62
2023/09/11 05:40:17;;;;;;;;;;;16.40;99.90;;;;;;4971081;28;19926;-62
2023/09/11 05:42:43;;;;;;;;;;;16.40;99.90;;;;;;4976587;28;19972;-62
2023/09/11 05:45:10;;;;;;;;;;;16.30;99.90;;;;;;4975822;28;19998;-62
2023/09/11 05:47:38;;;;;;;;;;;16.30;99.90;;;;;;4976731;28;19961;-62
2023/09/11 05:50:05;;;;;;;;;;;16.40;99.90;;;;;;4975480;28;19921;-62
2023/09/11 05:52:32;;;;;;;;;;;16.40;99.90;;;;;;4959074;28;20386;-62
2023/09/11 05:54:59;;;;;;;;;;;16.30;99.90;;;;;;4968537;28;20302;-62
2023/09/11 05:57:25;;;;;;;;;;;16.30;99.90;;;;;;4975591;28;20004;-62
2023/09/11 05:59:52;;;;;;;;;;;16.40;99.90;;;;;;4967811;28;20272;-62
2023/09/11 06:02:19;;;;;;;;;;;16.40;99.90;;;;;;4972382;28;20013;-62
2023/09/11 06:04:46;;;;;;;;;;;16.50;99.90;;;;;;4976264;28;19929;-62
2023/09/11 06:07:12;;;;;;;;;;;16.50;99.90;;;;;;4975112;28;19922;-62
2023/09/11 06:09:39;;;;;;;;;;;16.50;99.90;;;;;;4975884;28;19922;-62
2023/09/11 06:12:06;;;;;;;;;;;16.60;99.90;;;;;;4967174;28;19938;-62
2023/09/11 06:14:37;;;;;;;;;;;16.70;99.90;;;;;;4956835;28;20348;-62
2023/09/11 06:17:05;;;;;;;;;;;16.80;99.90;;;;;;4974293;28;19921;-62
2023/09/11 06:19:31;;;;;;;;;;;16.90;99.90;;;;;;4967417;28;20017;-62
2023/09/11 06:21:58;;;;;;;;;;;17.00;99.90;;;;;;4953339;28;19928;-62
2023/09/11 06:24:25;;;;;;;;;;;17.10;99.90;;;;;;4969812;28;20297;-62
2023/09/11 06:27:01;;;;;;;;;;;17.20;99.90;;;;;;4973331;28;20299;-62
2023/09/11 06:29:28;;;;;;;;;;;17.30;99.90;;;;;;4970618;28;19988;-62
2023/09/11 06:31:56;;;;;;;;;;;17.50;99.90;;;;;;4968646;28;19956;-62
2023/09/11 06:34:22;;;;;;;;;;;17.60;99.90;;;;;;4974696;28;19926;-62
2023/09/11 06:36:52;;;;;;;;;;;17.80;99.90;;;;;;4970173;28;19929;-61
2023/09/11 06:39:19;;;;;;;;;;;18.00;99.90;;;;;;4974361;28;19938;-62
2023/09/11 06:41:46;;;;;;;;;;;18.20;99.90;;;;;;4957520;28;19922;-62
2023/09/11 06:44:13;;;;;;;;;;;18.20;99.90;;;;;;4974711;28;19945;-62
2023/09/11 06:46:40;;;;;;;;;;;18.30;99.90;;;;;;4973181;28;19994;-62
2023/09/11 06:49:07;;;;;;;;;;;18.40;99.90;;;;;;4974736;28;20315;-62
2023/09/11 06:51:34;;;;;;;;;;;18.50;99.90;;;;;;4974527;28;19926;-61
2023/09/11 06:54:03;;;;;;;;;;;18.60;99.90;;;;;;4974717;28;20325;-62
2023/09/11 06:56:30;;;;;;;;;;;18.70;99.90;;;;;;4974660;28;19926;-61
2023/09/11 06:58:57;;;;;;;;;;;18.80;99.90;;;;;;4974362;28;19922;-61
2023/09/11 07:01:24;;;;;;;;;;;19.00;99.90;;;;;;4966363;28;20359;-62
2023/09/11 07:03:50;;;;;;;;;;;19.10;99.90;;;;;;4973890;28;20009;-60
2023/09/11 07:06:17;;;;;;;;;;;19.30;99.90;;;;;;4966985;28;20175;-61
2023/09/11 07:08:46;;;;;;;;;;;19.50;99.90;;;;;;4966242;28;19926;-61
2023/09/11 07:11:15;;;;;;;;;;;19.70;99.90;;;;;;4972607;28;19921;-61
2023/09/11 07:13:42;;;;;;;;;;;19.70;99.90;;;;;;4965964;28;19926;-61
2023/09/11 07:16:09;;;;;;;;;;;19.80;99.90;;;;;;4972940;28;19933;-62
2023/09/11 07:18:36;;;;;;;;;;;19.90;99.90;;;;;;4973407;28;19929;-61
2023/09/11 07:21:02;;;;;;;;;;;20.00;99.90;;;;;;4968231;28;19969;-60
2023/09/11 07:23:29;;;;;;;;;;;20.20;99.90;;;;;;4974325;28;19925;-62
2023/09/11 07:25:56;;;;;;;;;;;20.30;99.90;;;;;;4972503;28;19932;-60
2023/09/11 07:28:27;;;;;;;;;;;20.40;99.90;;;;;;4959022;28;19929;-61
2023/09/11 07:30:54;;;;;;;;;;;20.50;99.90;;;;;;4973939;28;19922;-62
2023/09/11 07:33:21;;;;;;;;;;;20.60;99.90;;;;;;4969623;28;19922;-61
2023/09/11 07:35:48;;;;;;;;;;;20.60;99.90;;;;;;4969969;28;20342;-61
2023/09/11 07:38:15;;;;;;;;;;;20.70;99.90;;;;;;4972843;28;19930;-62
2023/09/11 07:40:42;;;;;;;;;;;20.80;99.90;;;;;;4973624;28;19926;-62
2023/09/11 07:43:08;;;;;;;;;;;20.90;99.90;;;;;;4973425;28;20496;-61
2023/09/11 07:45:35;;;;;;;;;;;20.90;99.90;;;;;;4972974;28;19969;-61
2023/09/11 07:48:02;;;;;;;;;;;21.00;99.90;;;;;;4972838;28;19929;-62
2023/09/11 07:50:28;;;;;;;;;;;21.10;99.90;;;;;;4971701;28;20427;-61
2023/09/11 07:52:55;;;;;;;;;;;21.30;99.90;;;;;;4973420;28;19937;-62
2023/09/11 07:55:22;;;;;;;;;;;21.40;99.90;;;;;;4958775;28;19922;-62
2023/09/11 07:57:52;;;;;;;;;;;21.50;99.90;;;;;;4973045;28;20287;-61
2023/09/11 08:00:19;;;;;;;;;;;21.60;99.90;;;;;;4963786;28;20483;-62
2023/09/11 08:02:48;;;;;;;;;;;21.70;99.90;;;;;;4973834;28;19926;-61
2023/09/11 08:05:15;;;;;;;;;;;21.80;99.90;;;;;;4964187;28;19928;-62
2023/09/11 08:07:41;;;;;;;;;;;21.70;99.90;;;;;;4967480;28;19923;-60
2023/09/11 08:10:08;;;;;;;;;;;21.80;99.90;;;;;;4969389;28;19922;-61
2023/09/11 08:12:35;;;;;;;;;;;21.90;99.90;;;;;;4973441;28;20061;-61
2023/09/11 08:15:02;;;;;;;;;;;22.00;99.90;;;;;;4964708;28;19948;-61
2023/09/11 08:17:29;;;;;;;;;;;22.20;99.90;;;;;;4965168;28;19922;-62
2023/09/11 08:19:57;;;;;;;;;;;22.30;99.90;;;;;;4972836;28;19941;-62
2023/09/11 08:22:24;;;;;;;;;;;22.40;99.90;;;;;;4956305;28;19922;-61
2023/09/11 08:24:50;;;;;;;;;;;22.50;99.90;;;;;;4969707;28;19929;-62
2023/09/11 08:27:17;;;;;;;;;;;22.60;99.90;;;;;;4971792;28;20490;-62
2023/09/11 08:29:44;;;;;;;;;;;22.70;99.90;;;;;;4972847;28;19929;-62
2023/09/11 08:32:10;;;;;;;;;;;22.90;99.90;;;;;;4969710;28;19922;-61
2023/09/11 08:34:37;;;;;;;;;;;23.00;99.90;;;;;;4965295;28;20287;-62
2023/09/11 08:37:04;;;;;;;;;;;23.10;99.90;;;;;;4965216;28;19929;-60
2023/09/11 08:39:31;;;;;;;;;;;23.10;99.90;;;;;;4968599;28;19932;-62
2023/09/11 08:41:57;;;;;;;;;;;23.10;99.90;;;;;;4961469;28;19922;-62
2023/09/11 08:44:26;;;;;;;;;;;23.20;99.90;;;;;;4965099;28;19922;-62
2023/09/11 08:46:56;;;;;;;;;;;23.30;99.90;;;;;;4948816;28;20413;-62
2023/09/11 08:49:25;;;;;;;;;;;23.40;99.90;;;;;;4964336;28;19922;-61
2023/09/11 08:51:53;;;;;;;;;;;23.50;99.90;;;;;;4971954;28;19929;-62
2023/09/11 08:54:22;;;;;;;;;;;23.50;99.90;;;;;;4972707;28;19922;-60
2023/09/11 08:56:49;;;;;;;;;;;23.50;99.90;;;;;;4965827;28;19922;-62
2023/09/11 08:59:17;;;;;;;;;;;23.70;99.90;;;;;;4970013;28;19922;-61
2023/09/11 09:01:45;;;;;;;;;;;23.80;99.90;;;;;;4972663;28;19929;-62
2023/09/11 09:04:12;;;;;;;;;;;23.80;99.90;;;;;;4953571;28;19922;-61
2023/09/11 09:06:39;;;;;;;;;;;23.90;99.90;;;;;;4966254;28;19922;-62
2023/09/11 09:09:05;;;;;;;;;;;24.00;99.90;;;;;;4963520;28;20282;-62
2023/09/11 09:11:33;;;;;;;;;;;24.00;99.90;;;;;;4966958;28;19923;-62
2023/09/11 09:14:00;;;;;;;;;;;24.00;99.90;;;;;;4968840;28;20203;-62
2023/09/11 09:16:27;;;;;;;;;;;24.10;99.90;;;;;;4972897;28;19925;-62
2023/09/11 09:18:54;;;;;;;;;;;24.00;99.90;;;;;;4965074;28;19949;-62
2023/09/11 09:21:25;;;;;;;;;;;24.00;99.90;;;;;;4970277;28;19929;-62
2023/09/11 09:23:53;;;;;;;;;;;24.00;99.90;;;;;;4972448;28;19926;-61
2023/09/11 09:26:21;;;;;;;;;;;24.10;99.90;;;;;;4970184;28;19976;-61
2023/09/11 09:28:51;;;;;;;;;;;24.10;99.90;;;;;;4959079;28;19932;-62
2023/09/11 09:31:21;;;;;;;;;;;24.20;99.90;;;;;;4972003;28;20374;-62
2023/09/11 09:33:50;;;;;;;;;;;24.30;99.90;;;;;;4964169;28;19922;-61
2023/09/11 09:36:17;;;;;;;;;;;24.30;99.90;;;;;;4964281;28;20446;-61
2023/09/11 09:38:44;;;;;;;;;;;24.40;99.90;;;;;;4970508;28;20287;-61
2023/09/11 09:41:10;;;;;;;;;;;24.40;99.90;;;;;;4972106;28;19922;-62
2023/09/11 09:43:37;;;;;;;;;;;24.60;99.90;;;;;;4972337;28;20363;-62
2023/09/11 09:46:18;;;;;;;;;;;24.70;99.90;;;;;;4964870;28;19923;-61
2023/09/11 09:48:45;;;;;;;;;;;24.60;99.90;;;;;;4965896;28;19922;-62
2023/09/11 09:51:13;;;;;;;;;;;24.70;99.90;;;;;;4970847;28;19929;-60
2023/09/11 09:53:41;;;;;;;;;;;24.80;99.90;;;;;;4972045;28;19985;-61
2023/09/11 09:56:09;;;;;;;;;;;25.00;99.90;;;;;;4963350;28;19922;-62
2023/09/11 09:58:37;;;;;;;;;;;25.10;99.90;;;;;;4972456;28;19932;-62
2023/09/11 10:01:11;;;;;;;;;;;25.20;99.90;;;;;;4970564;28;19928;-62
2023/09/11 10:03:39;;;;;;;;;;;25.40;99.90;;;;;;4965105;28;20388;-62
2023/09/11 10:06:13;;;;;;;;;;;25.50;99.90;;;;;;4963427;28;19922;-62
2023/09/11 10:08:40;;;;;;;;;;;25.60;99.90;;;;;;4957007;28;19977;-61
2023/09/11 10:11:07;;;;;;;;;;;25.40;99.90;;;;;;4962486;28;21349;-62
2023/09/11 10:13:35;;;;;;;;;;;25.40;99.90;;;;;;4968882;28;20291;-62
2023/09/11 10:16:02;;;;;;;;;;;25.50;99.90;;;;;;4971546;28;19926;-61
2023/09/11 10:18:33;;;;;;;;;;;25.60;99.90;;;;;;4970347;28;19937;-62
2023/09/11 10:20:59;;;;;;;;;;;25.60;99.90;;;;;;4969989;28;20383;-62
2023/09/11 10:23:26;;;;;;;;;;;25.70;99.90;;;;;;4973059;28;20294;-62
2023/09/11 10:25:56;;;;;;;;;;;25.80;99.90;;;;;;4963931;28;19933;-62
2023/09/11 10:28:34;;;;;;;;;;;26.00;99.90;;;;;;4971471;28;20296;-62
2023/09/11 10:31:10;;;;;;;;;;;26.00;99.90;;;;;;4967045;28;19926;-62
2023/09/11 10:33:38;;;;;;;;;;;26.00;99.90;;;;;;4967336;28;19922;-62
2023/09/11 10:36:09;;;;;;;;;;;26.00;99.90;;;;;;4973975;28;20004;-62
2023/09/11 10:38:37;;;;;;;;;;;26.00;99.90;;;;;;4973981;28;19922;-62
2023/09/11 10:41:04;;;;;;;;;;;26.10;99.90;;;;;;4974962;28;20021;-62
2023/09/11 10:43:31;;;;;;;;;;;26.30;99.90;;;;;;4966564;28;19922;-62
2023/09/11 10:46:13;;;;;;;;;;;26.40;99.90;;;;;;4973992;28;19937;-62
2023/09/11 10:48:42;;;;;;;;;;;26.60;99.90;;;;;;4975186;28;19929;-62
2023/09/11 10:51:09;;;;;;;;;;;26.60;99.90;;;;;;4974157;28;19954;-62
2023/09/11 10:53:35;;;;;;;;;;;26.80;99.90;;;;;;4966867;28;19926;-62
2023/09/11 10:56:03;;;;;;;;;;;27.00;99.90;;;;;;4973505;28;19922;-63
2023/09/11 10:58:30;;;;;;;;;;;27.00;99.90;;;;;;4966502;28;19944;-62
2023/09/11 11:00:57;;;;;;;;;;;27.00;99.90;;;;;;4973263;28;19929;-62
2023/09/11 11:03:24;;;;;;;;;;;27.10;99.90;;;;;;4974627;28;19962;-62
2023/09/11 11:05:52;;;;;;;;;;;27.20;99.90;;;;;;4969579;28;19922;-62
2023/09/11 11:08:19;;;;;;;;;;;27.20;99.90;;;;;;4974409;28;19928;-62
2023/09/11 11:10:46;;;;;;;;;;;27.10;99.90;;;;;;4974169;28;19957;-62
2023/09/11 11:13:13;;;;;;;;;;;27.00;99.90;;;;;;4973238;28;20322;-62
2023/09/11 11:15:40;;;;;;;;;;;27.00;99.90;;;;;;4974511;28;19929;-62
2023/09/11 11:18:07;;;;;;;;;;;27.00;99.90;;;;;;4974288;28;19922;-62
2023/09/11 11:20:34;;;;;;;;;;;26.80;99.90;;;;;;4973911;28;19926;-62
2023/09/11 11:23:09;;;;;;;;;;;26.80;99.90;;;;;;4972931;28;19922;-62
2023/09/11 11:25:36;;;;;;;;;;;26.80;99.90;;;;;;4974209;28;20393;-61
2023/09/11 11:28:07;;;;;;;;;;;26.70;99.90;;;;;;4972752;28;19928;-62
2023/09/11 11:30:34;;;;;;;;;;;26.90;99.90;;;;;;4973387;28;19946;-62
2023/09/11 11:33:03;;;;;;;;;;;27.10;99.90;;;;;;4972489;28;19929;-62
2023/09/11 11:35:30;;;;;;;;;;;27.10;99.90;;;;;;4974021;28;20276;-62
2023/09/11 11:37:56;;;;;;;;;;;27.10;99.90;;;;;;4973003;28;19922;-60
2023/09/11 11:40:23;;;;;;;;;;;27.10;99.90;;;;;;4965455;28;20372;-62
2023/09/11 11:42:50;;;;;;;;;;;27.20;99.90;;;;;;4974110;28;19929;-62
2023/09/11 11:45:17;;;;;;;;;;;27.20;99.90;;;;;;4973482;28;19922;-62
2023/09/11 11:47:44;;;;;;;;;;;27.30;99.90;;;;;;4971042;28;19928;-62
2023/09/11 11:50:11;;;;;;;;;;;27.30;99.90;;;;;;4966836;28;20042;-62
2023/09/11 11:52:43;;;;;;;;;;;27.40;99.90;;;;;;4972741;28;20323;-62
2023/09/11 11:55:20;;;;;;;;;;;27.40;99.90;;;;;;4972757;28;19922;-62
2023/09/11 11:57:50;;;;;;;;;;;27.20;99.90;;;;;;4972588;28;19922;-62
2023/09/11 12:00:17;;;;;;;;;;;27.20;99.90;;;;;;4965037;28;19922;-62
2023/09/11 12:02:44;;;;;;;;;;;27.20;99.90;;;;;;4970459;28;19969;-61
2023/09/11 12:05:12;;;;;;;;;;;27.30;99.90;;;;;;4965270;28;19922;-62
2023/09/11 12:07:39;;;;;;;;;;;27.30;99.90;;;;;;4970876;28;19936;-62
2023/09/11 12:10:12;;;;;;;;;;;27.30;99.90;;;;;;4967803;28;19922;-62
2023/09/11 12:12:40;;;;;;;;;;;27.30;99.90;;;;;;4971065;28;19969;-62
2023/09/11 12:15:07;;;;;;;;;;;27.40;99.90;;;;;;4960285;28;19929;-62
2023/09/11 12:17:34;;;;;;;;;;;27.40;99.90;;;;;;4971357;28;20403;-62
2023/09/11 12:20:30;;;;;;;;;;;27.50;99.90;;;;;;4966860;28;19923;-62
2023/09/11 12:23:00;;;;;;;;;;;27.50;99.90;;;;;;4953986;28;19942;-62
2023/09/11 12:25:26;;;;;;;;;;;27.70;99.90;;;;;;4971359;28;20008;-62
2023/09/11 12:27:54;;;;;;;;;;;27.70;99.90;;;;;;4965300;28;19922;-62
2023/09/11 12:30:20;;;;;;;;;;;27.60;99.90;;;;;;4964257;28;19929;-62
2023/09/11 12:32:49;;;;;;;;;;;27.60;99.90;;;;;;4969874;28;19922;-61
2023/09/11 12:35:34;;;;;;;;;;;27.60;99.90;;;;;;4967803;28;19929;-61
2023/09/11 12:38:02;;;;;;;;;;;27.70;99.90;;;;;;4955968;28;19926;-62
2023/09/11 12:40:29;;;;;;;;;;;27.70;99.90;;;;;;4964274;28;19930;-62
2023/09/11 12:42:55;;;;;;;;;;;27.70;99.90;;;;;;4963714;28;19926;-62
2023/09/11 12:45:22;;;;;;;;;;;27.80;99.90;;;;;;4972991;28;19933;-62
2023/09/11 12:47:49;;;;;;;;;;;27.80;99.90;;;;;;4969489;28;19958;-62
2023/09/11 12:50:16;;;;;;;;;;;27.70;99.90;;;;;;4961239;28;19923;-62
2023/09/11 12:52:44;;;;;;;;;;;27.80;99.90;;;;;;4968989;28;19922;-61
2023/09/11 12:55:11;;;;;;;;;;;27.70;99.90;;;;;;4971826;28;20294;-62
2023/09/11 12:57:39;;;;;;;;;;;27.80;99.90;;;;;;4971603;28;19925;-62
2023/09/11 13:00:06;;;;;;;;;;;27.80;99.90;;;;;;4965848;28;19944;-61
2023/09/11 13:02:33;;;;;;;;;;;27.80;99.90;;;;;;4970399;28;19926;-62
2023/09/11 13:05:00;;;;;;;;;;;27.80;99.90;;;;;;4969289;28;19957;-62
2023/09/11 13:07:30;;;;;;;;;;;27.70;99.90;;;;;;4969904;28;20077;-62
2023/09/11 13:09:57;;;;;;;;;;;27.80;99.90;;;;;;4971560;28;19929;-62
2023/09/11 13:12:23;;;;;;;;;;;27.80;99.90;;;;;;4964750;28;19926;-62
2023/09/11 13:14:50;;;;;;;;;;;27.70;99.90;;;;;;4962743;28;19929;-62
2023/09/11 13:17:17;;;;;;;;;;;27.70;99.90;;;;;;4972589;28;19922;-62
2023/09/11 13:19:43;;;;;;;;;;;27.70;99.90;;;;;;4971501;28;19929;-60
2023/09/11 13:22:10;;;;;;;;;;;27.70;99.90;;;;;;4966906;28;20022;-62
2023/09/11 13:24:37;;;;;;;;;;;27.80;99.90;;;;;;4968191;28;19926;-62
2023/09/11 13:27:05;;;;;;;;;;;27.70;99.90;;;;;;4972414;28;19922;-62
2023/09/11 13:29:32;;;;;;;;;;;27.70;99.90;;;;;;4970512;28;19922;-62
2023/09/11 13:31:58;;;;;;;;;;;27.80;99.90;;;;;;4972389;28;19926;-62
2023/09/11 13:34:25;;;;;;;;;;;27.80;99.90;;;;;;4964953;28;19923;-61
2023/09/11 13:36:58;;;;;;;;;;;27.80;99.90;;;;;;4972056;28;20188;-62
2023/09/11 13:39:25;;;;;;;;;;;27.90;99.90;;;;;;4963719;28;19922;-61
2023/09/11 13:41:51;;;;;;;;;;;27.80;99.90;;;;;;4972283;28;19973;-61
2023/09/11 13:44:18;;;;;;;;;;;27.80;99.90;;;;;;4964072;28;20014;-61
2023/09/11 13:46:45;;;;;;;;;;;27.90;99.90;;;;;;4970827;28;20390;-61
2023/09/11 13:49:11;;;;;;;;;;;27.80;99.90;;;;;;4967482;28;20291;-62
2023/09/11 13:51:38;;;;;;;;;;;27.80;99.90;;;;;;4969735;28;20286;-62
2023/09/11 13:54:05;;;;;;;;;;;27.80;99.90;;;;;;4971249;28;19922;-62
2023/09/11 13:56:32;;;;;;;;;;;27.80;99.90;;;;;;4967697;28;20383;-61
2023/09/11 13:58:58;;;;;;;;;;;27.80;99.90;;;;;;4974699;28;19937;-62
2023/09/11 14:01:25;;;;;;;;;;;27.80;99.90;;;;;;4976043;28;19922;-62
2023/09/11 14:03:52;;;;;;;;;;;27.80;99.90;;;;;;4970530;28;20026;-62
2023/09/11 14:06:19;;;;;;;;;;;27.70;99.90;;;;;;4975196;28;20202;-62
2023/09/11 14:08:45;;;;;;;;;;;27.80;99.90;;;;;;4974908;28;19984;-62
2023/09/11 14:11:12;;;;;;;;;;;27.80;99.90;;;;;;4975473;28;20024;-62
2023/09/11 14:13:39;;;;;;;;;;;27.70;99.90;;;;;;4973955;28;19944;-62
2023/09/11 14:16:06;;;;;;;;;;;27.70;99.90;;;;;;4974252;28;20375;-62
2023/09/11 14:18:32;;;;;;;;;;;27.90;99.90;;;;;;4967171;28;20372;-62